Time;durP1;ratioP1;P1;durP2;ratioP2;P2;SDS_P1;SDS_P2;PMS_P1;PMS_P2;Temp;Humidity;BMP_temperature;BMP_pressure;BME280_temperature;BME280_humidity;BME280_pressure;Samples;Min_cycle;Max_cycle;Signal;HPM_P1;HPM_P2
2024/01/13 00:01:23;;;;;;;40.03;19.70;;;;;;;-145.18;100.00;47004.19;4992293;28;20116;-69
2024/01/13 00:03:48;;;;;;;34.03;18.80;;;;;;;-145.18;100.00;47004.19;4992014;28;20057;-69
2024/01/13 00:06:15;;;;;;;38.27;18.73;;;;;;;-145.18;100.00;47002.25;4991699;28;20038;-69
2024/01/13 00:08:41;;;;;;;37.10;19.77;;;;;;;-145.18;100.00;46998.34;4992292;28;20034;-69
2024/01/13 00:11:06;;;;;;;38.77;20.43;;;;;;;-145.18;100.00;47002.25;4992033;28;20334;-69
2024/01/13 00:13:31;;;;;;;40.47;20.93;;;;;;;-145.18;100.00;47000.28;4991843;28;20110;-69
2024/01/13 00:15:57;;;;;;;43.20;20.20;;;;;;;-145.18;100.00;47000.28;4992037;28;20041;-68
2024/01/13 00:18:22;;;;;;;48.23;22.77;;;;;;;-145.18;100.00;46994.44;4992155;28;20114;-69
2024/01/13 00:20:47;;;;;;;42.50;21.40;;;;;;;-145.18;100.00;47000.28;4991879;28;20394;-68
2024/01/13 00:23:13;;;;;;;43.93;22.17;;;;;;;-145.18;100.00;47000.28;4992358;28;20108;-69
2024/01/13 00:25:38;;;;;;;43.93;21.20;;;;;;;-145.18;100.00;46996.38;4974674;28;20049;-69
2024/01/13 00:28:04;;;;;;;41.00;21.10;;;;;;;-145.18;100.00;46994.44;4990125;28;20062;-69
2024/01/13 00:30:29;;;;;;;46.80;22.33;;;;;;;-145.18;100.00;46994.44;4992370;28;20038;-67
2024/01/13 00:32:54;;;;;;;46.23;22.77;;;;;;;-145.18;100.00;46996.38;4991750;28;20124;-67
2024/01/13 00:35:20;;;;;;;42.50;21.10;;;;;;;-145.18;100.00;47000.28;4995294;28;20046;-69
2024/01/13 00:37:45;;;;;;;44.77;22.00;;;;;;;-145.18;100.00;46998.34;4995962;28;20108;-69
2024/01/13 00:40:13;;;;;;;41.47;21.00;;;;;;;-145.18;100.00;47000.28;4980571;28;20034;-68
2024/01/13 00:42:41;;;;;;;41.60;21.33;;;;;;;-145.18;100.00;47002.25;4999714;28;20026;-69
2024/01/13 00:45:07;;;;;;;45.13;21.27;;;;;;;-145.18;100.00;47004.19;4996027;28;20275;-69
2024/01/13 00:47:32;;;;;;;40.97;21.23;;;;;;;-145.18;100.00;47000.28;4978029;28;20280;-68
2024/01/13 00:49:58;;;;;;;38.80;19.93;;;;;;;-145.18;100.00;46996.38;4978096;28;20034;-69
2024/01/13 00:52:23;;;;;;;42.83;20.13;;;;;;;-145.18;100.00;47004.19;4977969;28;20030;-68
2024/01/13 00:54:49;;;;;;;39.43;20.33;;;;;;;-145.18;100.00;47000.28;4995638;28;20041;-69
2024/01/13 00:57:14;;;;;;;42.37;19.57;;;;;;;-145.18;100.00;46998.34;4995627;28;20018;-69
2024/01/13 00:59:39;;;;;;;37.47;19.73;;;;;;;-145.18;100.00;47004.19;4995009;28;20030;-69
2024/01/13 01:02:05;;;;;;;43.33;20.13;;;;;;;-145.18;100.00;46998.34;4995624;28;20031;-69
2024/01/13 01:04:30;;;;;;;43.03;20.40;;;;;;;-145.18;100.00;46996.38;4995671;28;20066;-69
2024/01/13 01:06:55;;;;;;;37.73;20.70;;;;;;;-145.18;100.00;46996.38;4995648;28;20040;-69
2024/01/13 01:09:21;;;;;;;38.63;20.70;;;;;;;-145.18;100.00;47002.25;4995300;28;20561;-69
2024/01/13 01:11:46;;;;;;;39.33;20.73;;;;;;;-145.18;100.00;47002.25;4994904;28;20074;-69
2024/01/13 01:14:12;;;;;;;39.10;22.07;;;;;;;-145.18;100.00;47000.28;4994933;28;20073;-69
2024/01/13 01:16:37;;;;;;;42.23;23.77;;;;;;;-145.18;100.00;47000.28;4995403;28;20022;-69
2024/01/13 01:19:02;;;;;;;44.97;23.00;;;;;;;-145.18;100.00;47000.28;4995254;28;20113;-69
2024/01/13 01:21:28;;;;;;;45.00;22.20;;;;;;;-145.18;100.00;47002.25;4993197;28;20026;-68
2024/01/13 01:23:53;;;;;;;46.00;23.70;;;;;;;-145.18;100.00;47004.19;4995092;28;20022;-69
2024/01/13 01:26:19;;;;;;;43.17;22.73;;;;;;;-145.18;100.00;47002.25;4994939;28;20045;-68
2024/01/13 01:28:45;;;;;;;43.70;24.27;;;;;;;-145.18;100.00;47004.19;4993458;28;20080;-69
2024/01/13 01:31:11;;;;;;;38.67;22.87;;;;;;;-145.18;100.00;47002.25;4994591;28;20368;-69
2024/01/13 01:33:37;;;;;;;42.77;22.33;;;;;;;-145.18;100.00;47004.19;4994583;28;20386;-69
2024/01/13 01:36:02;;;;;;;46.23;22.67;;;;;;;-145.18;100.00;47006.16;4994659;28;20058;-69
2024/01/13 01:38:27;;;;;;;44.67;23.50;;;;;;;-145.18;100.00;47002.25;4994773;28;20284;-69
2024/01/13 01:40:54;;;;;;;41.67;22.80;;;;;;;-145.18;100.00;47002.25;4994144;28;20038;-69
2024/01/13 01:43:20;;;;;;;44.13;24.10;;;;;;;-145.18;100.00;47000.28;4995073;28;20041;-69
2024/01/13 01:45:51;;;;;;;41.47;22.67;;;;;;;-145.18;100.00;47002.25;4994058;28;20264;-69
2024/01/13 01:48:18;;;;;;;43.67;22.00;;;;;;;-145.18;100.00;47002.25;4992944;28;20672;-69
2024/01/13 01:50:44;;;;;;;44.47;23.00;;;;;;;-145.18;100.00;47000.28;4994515;28;20264;-69
2024/01/13 01:53:11;;;;;;;40.60;21.50;;;;;;;-145.18;100.00;47000.28;4994274;28;20771;-69
2024/01/13 01:55:37;;;;;;;37.43;20.93;;;;;;;-145.18;100.00;47004.19;4994353;28;20141;-69
2024/01/13 01:58:04;;;;;;;40.20;21.17;;;;;;;-145.18;100.00;47006.16;4977241;28;20264;-69
2024/01/13 02:00:30;;;;;;;41.00;22.13;;;;;;;-145.18;100.00;47004.19;4994363;28;20062;-69
2024/01/13 02:02:56;;;;;;;40.07;20.90;;;;;;;-145.18;100.00;47000.28;4994079;28;20378;-68
2024/01/13 02:05:21;;;;;;;35.77;21.20;;;;;;;-145.18;100.00;47000.28;4994341;28;20057;-69
2024/01/13 02:07:50;;;;;;;42.93;22.63;;;;;;;-145.18;100.00;47004.19;4994424;28;20620;-69
2024/01/13 02:10:17;;;;;;;38.93;21.83;;;;;;;-145.18;100.00;47002.25;4993970;28;20462;-69
2024/01/13 02:12:43;;;;;;;37.77;22.37;;;;;;;-145.18;100.00;47004.19;4994176;28;20268;-69
2024/01/13 02:15:09;;;;;;;35.83;21.47;;;;;;;-145.18;100.00;47002.25;4993626;28;20287;-68
2024/01/13 02:17:35;;;;;;;37.70;21.77;;;;;;;-145.18;100.00;47000.28;4994529;28;20030;-69
2024/01/13 02:20:05;;;;;;;34.60;21.27;;;;;;;-145.18;100.00;47004.19;4976565;28;20026;-69
2024/01/13 02:22:31;;;;;;;31.60;19.70;;;;;;;-145.18;100.00;46998.34;4994162;28;20282;-69
2024/01/13 02:24:57;;;;;;;34.10;19.10;;;;;;;-145.18;100.00;47000.28;4992569;28;20756;-69
2024/01/13 02:27:22;;;;;;;30.63;18.73;;;;;;;-145.18;100.00;47006.16;4991075;28;20038;-69
2024/01/13 02:29:48;;;;;;;34.30;17.67;;;;;;;-145.18;100.00;47000.28;4993579;28;20815;-69
2024/01/13 02:32:13;;;;;;;28.00;16.77;;;;;;;-145.18;100.00;47002.25;4993654;28;20034;-68
2024/01/13 02:34:39;;;;;;;26.43;16.03;;;;;;;-145.18;100.00;46998.34;4976008;28;20040;-69
2024/01/13 02:37:04;;;;;;;27.20;15.60;;;;;;;-145.18;100.00;47006.16;4985564;28;20129;-69
2024/01/13 02:39:29;;;;;;;25.93;15.67;;;;;;;-145.18;100.00;47002.25;4993760;28;20041;-69
2024/01/13 02:41:55;;;;;;;29.17;15.47;;;;;;;-145.18;100.00;47000.28;4993506;28;20497;-69
2024/01/13 02:44:20;;;;;;;23.57;14.63;;;;;;;-145.18;100.00;46998.34;4993479;28;20033;-69
2024/01/13 02:46:45;;;;;;;25.67;14.30;;;;;;;-145.18;100.00;46996.38;4975710;28;20062;-69
2024/01/13 02:49:12;;;;;;;23.53;14.03;;;;;;;-145.18;100.00;46994.44;4993664;28;20117;-69
2024/01/13 02:51:37;;;;;;;23.50;13.03;;;;;;;-145.18;100.00;46998.34;4989147;28;20490;-69
2024/01/13 02:54:03;;;;;;;22.37;12.20;;;;;;;-145.18;100.00;46998.34;4991690;28;20360;-68
2024/01/13 02:56:28;;;;;;;20.57;13.03;;;;;;;-145.18;100.00;46998.34;4977593;28;20105;-69
2024/01/13 02:58:53;;;;;;;23.83;12.50;;;;;;;-145.18;100.00;46996.38;4995896;28;20042;-69
2024/01/13 03:01:19;;;;;;;22.67;11.50;;;;;;;-145.18;100.00;46994.44;4993156;28;20042;-69
2024/01/13 03:03:44;;;;;;;17.20;11.00;;;;;;;-145.18;100.00;47000.28;4993089;28;20050;-68
2024/01/13 03:06:11;;;;;;;20.10;11.40;;;;;;;-145.18;100.00;46998.34;4992518;28;20487;-69
2024/01/13 03:08:36;;;;;;;16.90;10.50;;;;;;;-145.18;100.00;46998.34;4992862;28;20116;-69
2024/01/13 03:11:02;;;;;;;18.57;10.43;;;;;;;-145.18;100.00;47000.28;4975356;28;20771;-69
2024/01/13 03:13:27;;;;;;;16.20;9.17;;;;;;;-145.18;100.00;47004.19;4975481;28;20051;-69
2024/01/13 03:15:52;;;;;;;13.17;8.63;;;;;;;-145.18;100.00;47000.28;4992911;28;20502;-69
2024/01/13 03:18:18;;;;;;;12.97;8.37;;;;;;;-145.18;100.00;46996.38;4993159;28;20022;-72
2024/01/13 03:20:43;;;;;;;13.40;7.97;;;;;;;-145.18;100.00;47000.28;4992693;28;20034;-70
2024/01/13 03:23:09;;;;;;;14.83;7.80;;;;;;;-145.18;100.00;47004.19;4993211;28;20402;-71
2024/01/13 03:25:34;;;;;;;13.03;7.50;;;;;;;-145.18;100.00;47002.25;4993212;28;20031;-71
2024/01/13 03:28:00;;;;;;;16.20;6.57;;;;;;;-145.18;100.00;47000.28;4993225;28;20506;-71
2024/01/13 03:30:25;;;;;;;14.00;6.63;;;;;;;-145.18;100.00;47000.28;4992611;28;20034;-71
2024/01/13 03:32:50;;;;;;;12.23;6.77;;;;;;;-145.18;100.00;47000.28;4992476;28;20046;-71
2024/01/13 03:35:16;;;;;;;11.80;7.10;;;;;;;-145.18;100.00;47002.25;4992543;28;20130;-72
2024/01/13 03:37:41;;;;;;;15.80;8.13;;;;;;;-145.18;100.00;46994.44;4992909;28;20040;-72
2024/01/13 03:40:07;;;;;;;11.97;6.53;;;;;;;-145.18;100.00;47002.25;4992118;28;20038;-71
2024/01/13 03:42:33;;;;;;;14.67;8.00;;;;;;;-145.18;100.00;47004.19;4992565;28;20122;-71
2024/01/13 03:44:58;;;;;;;16.23;7.80;;;;;;;-145.18;100.00;47000.28;4992989;28;20350;-71
2024/01/13 03:47:24;;;;;;;17.50;8.27;;;;;;;-145.18;100.00;47004.19;4992795;28;20788;-72
2024/01/13 03:49:49;;;;;;;15.50;7.50;;;;;;;-145.18;100.00;47006.16;4975469;28;20030;-71
2024/01/13 03:52:15;;;;;;;17.73;7.40;;;;;;;-145.18;100.00;47006.16;4992496;28;20108;-71
2024/01/13 03:54:41;;;;;;;18.63;9.00;;;;;;;-145.18;100.00;47008.09;4992433;28;20117;-72
2024/01/13 03:57:07;;;;;;;22.13;8.83;;;;;;;-145.18;100.00;47004.19;4992375;28;20034;-72
2024/01/13 03:59:32;;;;;;;18.43;8.90;;;;;;;-145.18;100.00;47004.19;4992228;28;20276;-72
2024/01/13 04:01:57;;;;;;;19.23;9.07;;;;;;;-145.18;100.00;47006.16;4992059;28;20034;-72
2024/01/13 04:04:23;;;;;;;24.77;10.30;;;;;;;-145.18;100.00;47004.19;4992594;28;20101;-72
2024/01/13 04:06:48;;;;;;;24.70;10.43;;;;;;;-145.18;100.00;47006.16;4992441;28;20438;-72
2024/01/13 04:09:14;;;;;;;24.87;11.00;;;;;;;-145.18;100.00;47004.19;4992157;28;20040;-72
2024/01/13 04:11:39;;;;;;;25.67;10.57;;;;;;;-145.18;100.00;47006.16;4992350;28;20065;-72
2024/01/13 04:14:05;;;;;;;27.57;12.37;;;;;;;-145.18;100.00;47006.16;4992541;28;20062;-72
2024/01/13 04:16:30;;;;;;;29.20;11.80;;;;;;;-145.18;100.00;47006.16;4992345;28;20509;-72
2024/01/13 04:18:55;;;;;;;34.73;13.13;;;;;;;-145.18;100.00;47004.19;4992244;28;20096;-72
2024/01/13 04:21:21;;;;;;;41.60;15.77;;;;;;;-145.18;100.00;47004.19;4992145;28;20101;-72
2024/01/13 04:23:46;;;;;;;40.20;14.90;;;;;;;-145.18;100.00;47004.19;4991967;28;20034;-72
2024/01/13 04:26:12;;;;;;;44.13;15.80;;;;;;;-145.18;100.00;47006.16;4992201;28;20038;-72
2024/01/13 04:28:38;;;;;;;42.93;16.23;;;;;;;-145.18;100.00;47010.06;4989649;28;20048;-69
2024/01/13 04:31:04;;;;;;;44.10;16.17;;;;;;;-145.18;100.00;47006.16;4991046;28;20038;-69
2024/01/13 04:33:30;;;;;;;44.83;17.63;;;;;;;-145.18;100.00;47002.25;4991883;28;20260;-69
2024/01/13 04:35:56;;;;;;;49.43;16.87;;;;;;;-145.18;100.00;47004.19;4990726;28;20300;-70
2024/01/13 04:38:22;;;;;;;46.17;16.17;;;;;;;-145.18;100.00;47004.19;4992203;28;20307;-69
2024/01/13 04:40:49;;;;;;;45.73;17.03;;;;;;;-145.18;100.00;47006.16;4991820;28;20040;-69
2024/01/13 04:43:14;;;;;;;56.17;18.90;;;;;;;-145.18;100.00;47006.16;4990034;28;20034;-68
2024/01/13 04:45:40;;;;;;;50.87;16.60;;;;;;;-145.18;100.00;47004.19;4991835;28;20279;-69
2024/01/13 04:48:06;;;;;;;50.27;17.97;;;;;;;-145.18;100.00;47002.25;4992282;28;20050;-69
2024/01/13 04:50:31;;;;;;;59.03;18.97;;;;;;;-145.18;100.00;47006.16;4991905;28;20502;-69
2024/01/13 04:52:56;;;;;;;48.53;17.17;;;;;;;-145.18;100.00;47008.09;4991739;28;20038;-69
2024/01/13 04:55:22;;;;;;;52.43;18.93;;;;;;;-145.18;100.00;47010.06;4973948;28;20034;-69
2024/01/13 04:57:47;;;;;;;44.27;18.50;;;;;;;-145.18;100.00;47010.06;4991856;28;20034;-69
2024/01/13 05:00:13;;;;;;;43.70;16.77;;;;;;;-145.18;100.00;47006.16;4991451;28;20030;-69
2024/01/13 05:02:39;;;;;;;43.70;16.97;;;;;;;-145.18;100.00;47008.09;4974549;28;20022;-69
2024/01/13 05:05:04;;;;;;;43.77;16.97;;;;;;;-145.18;100.00;47004.19;4991434;28;20279;-69
2024/01/13 05:07:30;;;;;;;42.13;16.43;;;;;;;-145.18;100.00;47006.16;4991937;28;20482;-69
2024/01/13 05:09:55;;;;;;;39.87;16.47;;;;;;;-145.18;100.00;47010.06;4991565;28;20041;-69
2024/01/13 05:12:21;;;;;;;38.03;16.67;;;;;;;-145.18;100.00;47012.00;4995190;28;20034;-69
2024/01/13 05:14:46;;;;;;;40.87;17.67;;;;;;;-145.18;100.00;47006.16;4994000;28;20477;-69
2024/01/13 05:17:12;;;;;;;39.60;15.40;;;;;;;-145.18;100.00;47004.19;4991288;28;20081;-69
2024/01/13 05:19:37;;;;;;;37.63;15.83;;;;;;;-145.18;100.00;47006.16;4991702;28;20030;-70
2024/01/13 05:22:03;;;;;;;41.03;17.37;;;;;;;-145.18;100.00;47008.09;4978108;28;20104;-70
2024/01/13 05:24:28;;;;;;;37.37;16.53;;;;;;;-145.18;100.00;47008.09;4994678;28;20050;-69
2024/01/13 05:26:54;;;;;;;40.77;16.43;;;;;;;-145.18;100.00;47012.00;4994880;28;20030;-69
2024/01/13 05:29:19;;;;;;;37.70;15.90;;;;;;;-145.18;100.00;47013.97;4994543;28;20043;-69
2024/01/13 05:31:47;;;;;;;39.77;17.07;;;;;;;-145.18;100.00;47010.06;4992576;28;20056;-69
2024/01/13 05:34:12;;;;;;;41.47;15.83;;;;;;;-145.18;100.00;47012.00;4992612;28;20037;-69
2024/01/13 05:36:38;;;;;;;42.40;17.43;;;;;;;-145.18;100.00;47012.00;4993911;28;20292;-69
2024/01/13 05:39:03;;;;;;;39.83;17.20;;;;;;;-145.18;100.00;47013.97;4985507;28;20169;-69
2024/01/13 05:41:28;;;;;;;44.53;17.87;;;;;;;-145.18;100.00;47010.06;4994472;28;20077;-69
2024/01/13 05:43:54;;;;;;;48.93;20.10;;;;;;;-145.18;100.00;47012.00;4994065;28;20038;-69
2024/01/13 05:46:19;;;;;;;47.50;18.13;;;;;;;-145.18;100.00;47010.06;4994626;28;20439;-69
2024/01/13 05:48:45;;;;;;;43.83;18.57;;;;;;;-145.18;100.00;47015.91;4992961;28;20053;-69
2024/01/13 05:51:10;;;;;;;50.67;19.80;;;;;;;-145.18;100.00;47012.00;4976250;28;20045;-69
2024/01/13 05:53:37;;;;;;;54.67;21.97;;;;;;;-145.18;100.00;47012.00;4993378;28;20077;-69
2024/01/13 05:56:03;;;;;;;50.70;21.13;;;;;;;-145.18;100.00;47012.00;4991638;28;20069;-70
2024/01/13 05:58:29;;;;;;;52.53;20.87;;;;;;;-145.18;100.00;47013.97;4994123;28;20406;-70
2024/01/13 06:00:54;;;;;;;49.70;20.97;;;;;;;-145.18;100.00;47010.06;4993094;28;20779;-69
2024/01/13 06:03:19;;;;;;;53.47;23.47;;;;;;;-145.18;100.00;47008.09;4991451;28;20027;-69
2024/01/13 06:05:45;;;;;;;57.77;24.67;;;;;;;-145.18;100.00;47012.00;4993996;28;20045;-69
2024/01/13 06:08:10;;;;;;;59.40;23.87;;;;;;;-145.18;100.00;47010.06;4994075;28;20023;-69
2024/01/13 06:10:36;;;;;;;56.70;24.93;;;;;;;-145.18;100.00;47013.97;4994323;28;20022;-69
2024/01/13 06:13:01;;;;;;;55.03;23.90;;;;;;;-145.18;100.00;47008.09;4994165;28;20474;-69
2024/01/13 06:15:28;;;;;;;55.27;24.03;;;;;;;-145.18;100.00;47008.09;4972364;28;20026;-69
2024/01/13 06:17:53;;;;;;;60.33;25.87;;;;;;;-145.18;100.00;47010.06;4988106;28;20510;-69
2024/01/13 06:20:18;;;;;;;52.87;22.93;;;;;;;-145.18;100.00;47012.00;4994075;28;20304;-69
2024/01/13 06:22:44;;;;;;;48.57;21.63;;;;;;;-145.18;100.00;47013.97;4993713;28;20031;-69
2024/01/13 06:25:09;;;;;;;63.10;23.20;;;;;;;-145.18;100.00;47012.00;4976222;28;20037;-69
2024/01/13 06:27:35;;;;;;;56.53;23.23;;;;;;;-145.18;100.00;47006.16;4993652;28;20057;-69
2024/01/13 06:30:00;;;;;;;58.40;24.70;;;;;;;-145.18;100.00;47008.09;4992879;28;20029;-69
2024/01/13 06:32:26;;;;;;;57.20;22.10;;;;;;;-145.18;100.00;47012.00;4993156;28;20120;-69
2024/01/13 06:34:51;;;;;;;53.80;22.07;;;;;;;-145.18;100.00;47012.00;4993252;28;20030;-69
2024/01/13 06:37:16;;;;;;;51.00;21.43;;;;;;;-145.18;100.00;47015.91;4993000;28;20030;-69
2024/01/13 06:39:42;;;;;;;54.43;23.23;;;;;;;-145.18;100.00;47010.06;4993022;28;20516;-69
2024/01/13 06:42:08;;;;;;;55.53;23.53;;;;;;;-145.18;100.00;47010.06;4993112;28;20037;-69
2024/01/13 06:44:33;;;;;;;51.13;21.57;;;;;;;-145.18;100.00;47013.97;4993337;28;20030;-69
2024/01/13 06:47:01;;;;;;;55.33;23.23;;;;;;;-145.18;100.00;47012.00;4996214;28;20275;-72
2024/01/13 06:49:26;;;;;;;48.73;21.13;;;;;;;-145.18;100.00;47015.91;4990983;28;20050;-72
2024/01/13 06:51:51;;;;;;;54.57;22.63;;;;;;;-145.18;100.00;47012.00;4993229;28;20783;-72
2024/01/13 06:54:17;;;;;;;50.23;21.17;;;;;;;-145.18;100.00;47008.09;4991927;28;20045;-72
2024/01/13 06:56:42;;;;;;;52.00;21.47;;;;;;;-145.18;100.00;47012.00;4992987;28;20109;-72
2024/01/13 06:59:08;;;;;;;53.70;22.43;;;;;;;-145.18;100.00;47012.00;4993341;28;20038;-72
2024/01/13 07:01:33;;;;;;;47.50;20.50;;;;;;;-145.18;100.00;47015.91;4993107;28;20482;-72
2024/01/13 07:03:59;;;;;;;49.77;20.83;;;;;;;-145.18;100.00;47013.97;4992711;28;20757;-72
2024/01/13 07:06:24;;;;;;;50.07;22.57;;;;;;;-145.18;100.00;47010.06;4992616;28;20030;-72
2024/01/13 07:08:49;;;;;;;48.60;21.23;;;;;;;-145.18;100.00;47012.00;4969481;28;20029;-72
2024/01/13 07:11:15;;;;;;;46.80;20.97;;;;;;;-145.18;100.00;47012.00;4993584;28;20026;-72
2024/01/13 07:13:44;;;;;;;49.07;20.23;;;;;;;-145.18;100.00;47012.00;4993232;28;20105;-72
2024/01/13 07:16:11;;;;;;;44.70;19.57;;;;;;;-145.18;100.00;47012.00;4992597;28;20478;-72
2024/01/13 07:18:36;;;;;;;45.47;18.43;;;;;;;-145.18;100.00;47013.97;4992772;28;20256;-72
2024/01/13 07:21:02;;;;;;;46.83;18.70;;;;;;;-145.18;100.00;47012.00;4992375;28;20641;-73
2024/01/13 07:23:29;;;;;;;42.20;19.07;;;;;;;-145.18;100.00;47015.91;4992259;28;20042;-72
2024/01/13 07:25:55;;;;;;;39.57;19.03;;;;;;;-145.18;100.00;47017.88;4992093;28;20338;-72
2024/01/13 07:28:20;;;;;;;47.80;20.60;;;;;;;-145.18;100.00;47012.00;4990003;28;20271;-72
2024/01/13 07:30:46;;;;;;;41.27;20.80;;;;;;;-145.18;100.00;47019.81;4996384;28;20264;-72
2024/01/13 07:33:12;;;;;;;44.20;20.60;;;;;;;-145.18;100.00;47013.97;4994980;28;20503;-72
2024/01/13 07:35:37;;;;;;;42.93;20.53;;;;;;;-145.18;100.00;47012.00;4991112;28;20046;-72
2024/01/13 07:38:03;;;;;;;42.30;20.43;;;;;;;-145.18;100.00;47013.97;4988871;28;20044;-72
2024/01/13 07:40:28;;;;;;;43.87;20.60;;;;;;;-145.18;100.00;47015.91;4991795;28;20042;-72
2024/01/13 07:42:54;;;;;;;42.83;20.27;;;;;;;-145.18;100.00;47012.00;4990305;28;20129;-72
2024/01/13 07:45:20;;;;;;;44.20;19.47;;;;;;;-145.18;100.00;47015.91;4991581;28;20072;-72
2024/01/13 07:47:45;;;;;;;42.40;20.70;;;;;;;-145.18;100.00;47010.06;4991611;28;20038;-72
2024/01/13 07:50:11;;;;;;;44.80;21.43;;;;;;;-145.18;100.00;47012.00;4991744;28;20061;-72
2024/01/13 07:52:36;;;;;;;44.17;20.60;;;;;;;-145.18;100.00;47015.91;4991887;28;20031;-72
2024/01/13 07:55:01;;;;;;;40.73;20.33;;;;;;;-145.18;100.00;47015.91;4991075;28;20308;-72
2024/01/13 07:57:29;;;;;;;42.60;21.33;;;;;;;-145.18;100.00;47015.91;4991399;28;20471;-72
2024/01/13 07:59:54;;;;;;;44.83;21.40;;;;;;;-145.18;100.00;47012.00;4967317;28;20482;-72
2024/01/13 08:02:20;;;;;;;41.00;20.87;;;;;;;-145.18;100.00;47010.06;4973335;28;20334;-73
2024/01/13 08:04:45;;;;;;;44.27;21.63;;;;;;;-145.18;100.00;47008.09;4992067;28;20038;-73
2024/01/13 08:07:11;;;;;;;46.73;21.27;;;;;;;-145.18;100.00;47008.09;4992202;28;20030;-73
2024/01/13 08:09:37;;;;;;;46.53;22.30;;;;;;;-145.18;100.00;47008.09;4981652;28;20537;-72
2024/01/13 08:12:03;;;;;;;40.27;20.47;;;;;;;-145.18;100.00;47008.09;4972879;28;20037;-72
2024/01/13 08:14:28;;;;;;;44.30;22.17;;;;;;;-145.18;100.00;47008.09;4988677;28;20672;-72
2024/01/13 08:16:53;;;;;;;40.60;21.03;;;;;;;-145.18;100.00;47008.09;4990114;28;20070;-72
2024/01/13 08:19:19;;;;;;;43.87;21.40;;;;;;;-145.18;100.00;47010.06;4990250;28;20541;-73
2024/01/13 08:21:44;;;;;;;45.50;22.40;;;;;;;-145.18;100.00;47012.00;4969953;28;20045;-73
2024/01/13 08:24:10;;;;;;;43.33;23.87;;;;;;;-145.18;100.00;47004.19;4986481;28;20030;-73
2024/01/13 08:26:37;;;;;;;45.83;23.70;;;;;;;-145.18;100.00;47006.16;4990509;28;20101;-73
2024/01/13 08:29:02;;;;;;;43.73;22.40;;;;;;;-145.18;100.00;47004.19;4991099;28;20045;-73
2024/01/13 08:31:28;;;;;;;45.87;23.20;;;;;;;-145.18;100.00;47002.25;4989799;28;20275;-72
2024/01/13 08:33:53;;;;;;;43.80;23.83;;;;;;;-145.18;100.00;47008.09;4990205;28;20495;-73
2024/01/13 08:36:19;;;;;;;46.10;22.77;;;;;;;-145.18;100.00;47008.09;4990200;28;20061;-73
2024/01/13 08:38:44;;;;;;;47.50;25.53;;;;;;;-145.18;100.00;47000.28;4989812;28;20034;-73
2024/01/13 08:41:12;;;;;;;44.07;23.73;;;;;;;-145.18;100.00;47002.25;4989492;28;20062;-73
2024/01/13 08:43:40;;;;;;;40.67;20.73;;;;;;;-145.18;100.00;47002.25;4989428;28;20457;-73
2024/01/13 08:46:06;;;;;;;39.30;20.20;;;;;;;-145.18;100.00;47000.28;4988366;28;20713;-73
2024/01/13 08:48:31;;;;;;;40.20;20.23;;;;;;;-145.18;100.00;47002.25;4990966;28;20275;-73
2024/01/13 08:50:57;;;;;;;39.60;21.30;;;;;;;-145.18;100.00;47000.28;4984737;28;20038;-72
2024/01/13 08:53:22;;;;;;;43.27;21.83;;;;;;;-145.18;100.00;46998.34;4990160;28;20034;-73
2024/01/13 08:55:48;;;;;;;42.63;19.70;;;;;;;-145.18;100.00;46998.34;4974178;28;20446;-73
2024/01/13 08:58:13;;;;;;;37.83;19.63;;;;;;;-145.18;100.00;47000.28;4993752;28;20114;-73
2024/01/13 09:00:39;;;;;;;37.10;17.80;;;;;;;-145.18;100.00;47002.25;4973844;28;20165;-72
2024/01/13 09:03:04;;;;;;;39.97;18.20;;;;;;;-145.18;100.00;47000.28;4995680;28;20041;-72
2024/01/13 09:05:29;;;;;;;33.67;17.50;;;;;;;-145.18;100.00;47000.28;4994957;28;20394;-72
2024/01/13 09:07:55;;;;;;;33.83;17.60;;;;;;;-145.18;100.00;47002.25;4995549;28;20121;-73
2024/01/13 09:10:20;;;;;;;33.57;15.87;;;;;;;-145.18;100.00;46996.38;4995577;28;20038;-72
2024/01/13 09:12:46;;;;;;;33.80;15.80;;;;;;;-145.18;100.00;46996.38;4977371;28;20044;-72
2024/01/13 09:15:12;;;;;;;29.93;14.37;;;;;;;-145.18;100.00;47000.28;4994285;28;20058;-72
2024/01/13 09:17:38;;;;;;;33.27;16.37;;;;;;;-145.18;100.00;46994.44;4995484;28;20034;-72
2024/01/13 09:20:04;;;;;;;25.63;14.40;;;;;;;-145.18;100.00;46992.47;4994258;28;20260;-73
2024/01/13 09:22:30;;;;;;;27.67;14.33;;;;;;;-145.18;100.00;46996.38;4995426;28;20113;-72
2024/01/13 09:24:55;;;;;;;27.93;15.63;;;;;;;-145.18;100.00;46988.56;4995039;28;20360;-72
2024/01/13 09:27:21;;;;;;;31.13;14.13;;;;;;;-145.18;100.00;46988.56;4994778;28;20125;-73
2024/01/13 09:29:47;;;;;;;28.33;13.50;;;;;;;-145.18;100.00;46990.53;4993501;28;20039;-72
2024/01/13 09:32:13;;;;;;;26.17;12.40;;;;;;;-145.18;100.00;46992.47;4993795;28;20038;-73
2024/01/13 09:34:38;;;;;;;22.33;11.60;;;;;;;-145.18;100.00;46986.63;4977456;28;20038;-73
2024/01/13 09:37:04;;;;;;;23.67;12.57;;;;;;;-145.18;100.00;46984.66;4993664;28;20776;-69
2024/01/13 09:39:29;;;;;;;23.30;12.30;;;;;;;-145.18;100.00;46976.84;4995188;28;20470;-69
2024/01/13 09:41:55;;;;;;;21.27;12.10;;;;;;;-145.18;100.00;46982.72;4993382;28;20037;-69
2024/01/13 09:44:23;;;;;;;19.47;10.87;;;;;;;-145.18;100.00;46982.72;4994995;28;20475;-69
2024/01/13 09:46:51;;;;;;;18.90;10.83;;;;;;;-145.18;100.00;46972.94;4977280;28;20280;-69
2024/01/13 09:49:18;;;;;;;18.97;9.90;;;;;;;-145.18;100.00;46972.94;4995943;28;20295;-69
2024/01/13 09:51:44;;;;;;;17.93;10.10;;;;;;;-145.18;100.00;46967.09;4998078;28;20264;-70
2024/01/13 09:54:12;;;;;;;18.90;10.80;;;;;;;-145.18;100.00;46963.19;4995624;28;20259;-69
2024/01/13 09:56:47;;;;;;;21.40;10.77;;;;;;;-145.18;100.00;46963.19;4994413;28;20787;-69
2024/01/13 09:59:14;;;;;;;25.73;11.98;;;;;;;-145.18;100.00;46957.31;4994658;28;20624;-69
2024/01/13 10:01:39;;;;;;;18.70;11.37;;;;;;;-145.18;100.00;46957.31;4994212;28;20105;-69
2024/01/13 10:04:06;;;;;;;15.80;9.93;;;;;;;-145.18;100.00;46951.44;4994816;28;20752;-69
2024/01/13 10:06:33;;;;;;;20.90;11.53;;;;;;;-145.18;100.00;46949.50;4994340;28;20038;-69
2024/01/13 10:08:58;;;;;;;16.23;10.40;;;;;;;-145.18;100.00;46945.59;4994506;28;20279;-69
2024/01/13 10:11:24;;;;;;;18.33;9.80;;;;;;;-145.18;100.00;46941.69;4994449;28;20260;-69
2024/01/13 10:13:59;;;;;;;23.10;10.43;;;;;;;-145.18;100.00;46943.63;4994056;28;20133;-69
2024/01/13 10:16:31;;;;;;;16.98;10.00;;;;;;;-145.18;100.00;46941.69;4993890;28;20506;-69
2024/01/13 10:19:09;;;;;;;18.87;10.07;;;;;;;-145.18;100.00;46941.69;4994409;28;20592;-69
2024/01/13 10:21:36;;;;;;;24.73;11.63;;;;;;;-145.18;100.00;46941.69;4994283;28;20764;-69
2024/01/13 10:24:02;;;;;;;16.57;10.60;;;;;;;-145.18;100.00;46931.91;4994193;28;20256;-69
2024/01/13 10:26:29;;;;;;;16.30;10.23;;;;;;;-145.18;100.00;46933.88;4994149;28;20268;-69
2024/01/13 10:28:56;;;;;;;21.70;10.53;;;;;;;-145.18;100.00;46929.97;4994150;28;20267;-69
2024/01/13 10:31:22;;;;;;;18.77;10.90;;;;;;;-145.18;100.00;46929.97;4994285;28;20348;-69
2024/01/13 10:33:48;;;;;;;24.80;11.93;;;;;;;-145.18;100.00;46926.06;4994348;28;20415;-70
2024/01/13 10:36:22;;;;;;;24.33;11.80;;;;;;;-145.18;100.00;46928.00;4993617;28;20140;-69
2024/01/13 10:38:49;;;;;;;29.30;13.07;;;;;;;-145.18;100.00;46926.06;4994156;28;20287;-70
2024/01/13 10:41:15;;;;;;;22.10;12.80;;;;;;;-145.18;100.00;46922.16;4993791;28;20276;-69
2024/01/13 10:43:42;;;;;;;27.30;12.90;;;;;;;-145.18;100.00;46924.09;4993765;28;20589;-69
2024/01/13 10:46:12;;;;;;;25.10;12.37;;;;;;;-145.18;100.00;46920.19;4993294;28;20041;-69
2024/01/13 10:48:50;;;;;;;23.93;13.17;;;;;;;-145.18;100.00;46922.16;4993993;28;20267;-69